Time;durP1;ratioP1;P1;durP2;ratioP2;P2;SDS_P1;SDS_P2;PMS_P1;PMS_P2;Temp;Humidity;BMP_temperature;BMP_pressure;BME280_temperature;BME280_humidity;BME280_pressure;Samples;Min_cycle;Max_cycle;Signal;HPM_P1;HPM_P2
2021/08/19 11:40:27;;;;;;;8.45;5.40;;;;;;;17.65;75.78;101363.84;5072704;27;1216478;-38
2021/08/19 11:42:52;;;;;;;6.93;5.85;;;;;;;17.57;78.07;101366.81;4157205;28;10000866;-38
2021/08/19 11:45:19;;;;;;;7.78;6.55;;;;;;;17.39;79.25;101372.94;5039406;28;20026;-38
2021/08/19 11:47:45;;;;;;;10.98;7.95;;;;;;;17.26;80.18;101373.81;5028877;28;20022;-38
2021/08/19 11:50:11;;;;;;;11.52;7.90;;;;;;;17.12;80.63;101369.44;5029252;28;20037;-38
2021/08/19 11:52:36;;;;;;;8.75;7.32;;;;;;;17.11;81.15;101373.19;5029319;28;20026;-37
2021/08/19 11:55:01;;;;;;;13.52;8.90;;;;;;;17.17;82.07;101380.53;5010383;28;20119;-38
2021/08/19 11:57:27;;;;;;;13.63;8.65;;;;;;;17.27;82.56;101375.50;5028491;28;20034;-38
2021/08/19 12:00:26;;;;;;;9.73;8.15;;;;;;;17.44;81.47;101377.75;5029408;28;20029;-38
2021/08/19 12:02:59;;;;;;;9.45;7.72;;;;;;;17.50;80.17;101366.00;5028469;28;20034;-38
2021/08/19 12:05:24;;;;;;;11.18;8.27;;;;;;;17.38;80.65;101382.16;5028815;28;20409;-38
2021/08/19 12:07:51;;;;;;;12.35;8.40;;;;;;;17.41;81.56;101378.19;5028291;28;20095;-38
2021/08/19 12:10:16;;;;;;;12.10;9.03;;;;;;;17.31;81.68;101376.72;5028557;28;20037;-38
2021/08/19 12:12:42;;;;;;;9.60;8.30;;;;;;;17.33;81.25;101379.25;4995520;28;20047;-38
2021/08/19 12:15:08;;;;;;;9.07;8.13;;;;;;;17.34;81.18;101372.72;4994785;28;20038;-38
2021/08/19 12:17:33;;;;;;;14.15;8.05;;;;;;;17.43;81.61;101376.06;5029256;28;20037;-38
2021/08/19 12:20:20;;;;;;;13.10;8.70;;;;;;;17.22;82.08;101383.47;5028857;28;20032;-38
2021/08/19 12:22:45;;;;;;;11.70;8.93;;;;;;;17.15;82.08;101379.91;5011195;28;20041;-38
2021/08/19 12:25:19;;;;;;;10.60;8.40;;;;;;;17.12;82.59;101391.22;5028516;28;20028;-37
2021/08/19 12:27:45;;;;;;;12.95;8.18;;;;;;;16.93;82.61;101387.47;5028237;28;20097;-38
2021/08/19 12:30:10;;;;;;;11.50;8.35;;;;;;;16.80;83.16;101388.31;5026947;28;20033;-38
2021/08/19 12:32:36;;;;;;;10.55;7.82;;;;;;;16.81;83.32;101387.25;5028821;28;20034;-38
2021/08/19 12:35:06;;;;;;;10.68;8.23;;;;;;;16.84;83.46;101395.00;5028436;28;20423;-39
2021/08/19 12:37:33;;;;;;;10.88;8.13;;;;;;;16.83;83.62;101393.34;5028190;28;20037;-41
2021/08/19 12:40:08;;;;;;;12.68;8.32;;;;;;;16.96;84.37;101389.78;5027590;28;20101;-39
2021/08/19 12:42:34;;;;;;;9.65;8.10;;;;;;;17.05;83.84;101391.22;5028902;28;20503;-38
2021/08/19 12:45:21;;;;;;;9.45;7.43;;;;;;;16.87;83.27;101388.31;5028504;28;20038;-39
2021/08/19 12:48:07;;;;;;;10.63;7.78;;;;;;;16.96;84.36;101386.22;5010844;28;20033;-42
2021/08/19 12:50:34;;;;;;;8.00;6.88;;;;;;;16.93;83.22;101392.91;5021090;28;20049;-41
2021/08/19 12:53:09;;;;;;;10.88;7.68;;;;;;;16.87;83.86;101388.31;5014727;28;20034;-42
2021/08/19 12:55:35;;;;;;;9.18;7.47;;;;;;;16.89;84.19;101373.44;5014401;28;20022;-42
2021/08/19 12:58:00;;;;;;;10.88;8.55;;;;;;;16.94;85.21;101382.88;5014270;28;20543;-42
2021/08/19 13:00:27;;;;;;;7.07;6.38;;;;;;;16.92;84.30;101382.25;4996606;28;20056;-43
2021/08/19 13:02:53;;;;;;;6.63;5.93;;;;;;;16.81;85.05;101389.16;5011903;28;20026;-42
2021/08/19 13:05:19;;;;;;;10.02;7.22;;;;;;;16.90;85.93;101393.31;4996681;28;20157;-42
2021/08/19 13:07:45;;;;;;;8.60;6.70;;;;;;;16.80;84.63;101393.75;5014466;28;20432;-43
2021/08/19 13:10:11;;;;;;;10.25;7.57;;;;;;;16.69;84.57;101394.31;4997071;28;20026;-41
2021/08/19 13:12:36;;;;;;;15.88;9.27;;;;;;;16.68;85.03;101395.38;5014103;28;20401;-40
2021/08/19 13:15:02;;;;;;;21.33;10.18;;;;;;;16.71;84.68;101394.97;5013335;28;20048;-40
2021/08/19 13:17:27;;;;;;;18.90;11.13;;;;;;;16.72;85.18;101393.94;5014276;28;20181;-40
2021/08/19 13:19:53;;;;;;;19.23;10.95;;;;;;;16.66;84.27;101397.47;5013234;28;20018;-40
2021/08/19 13:22:18;;;;;;;21.05;11.60;;;;;;;16.64;84.14;101396.84;5009821;28;20399;-39
2021/08/19 13:24:44;;;;;;;24.08;12.60;;;;;;;16.67;84.41;101396.44;5013811;28;20377;-38
2021/08/19 13:27:09;;;;;;;31.73;12.68;;;;;;;16.74;84.30;101394.53;5013791;28;20430;-38
2021/08/19 13:29:38;;;;;;;23.02;12.52;;;;;;;16.78;84.18;101398.56;5011814;28;20393;-38
2021/08/19 13:32:04;;;;;;;21.63;13.40;;;;;;;16.80;83.99;101398.38;5006643;28;20129;-38
2021/08/19 13:34:29;;;;;;;29.75;13.77;;;;;;;16.82;83.20;101393.53;5008577;28;20140;-38
2021/08/19 13:36:54;;;;;;;25.38;12.32;;;;;;;16.79;82.90;101392.06;5006405;28;20064;-38
2021/08/19 13:39:20;;;;;;;22.83;11.90;;;;;;;16.82;82.38;101399.78;5009240;28;20046;-38
2021/08/19 13:41:45;;;;;;;28.20;13.98;;;;;;;16.84;84.08;101405.03;5010426;28;20374;-39
2021/08/19 13:44:10;;;;;;;19.25;12.57;;;;;;;16.81;83.01;101398.13;5009534;28;20750;-39
2021/08/19 13:46:36;;;;;;;22.88;12.65;;;;;;;16.88;83.32;101396.25;5010236;28;20037;-39
2021/08/19 13:49:01;;;;;;;16.75;11.48;;;;;;;16.90;82.25;101396.03;5010759;28;20038;-39
2021/08/19 13:51:26;;;;;;;21.67;12.98;;;;;;;16.97;83.37;101393.31;5010264;28;20480;-38
2021/08/19 13:53:52;;;;;;;18.20;10.25;;;;;;;16.96;81.22;101397.09;5009907;28;20033;-38
2021/08/19 13:56:17;;;;;;;15.80;9.38;;;;;;;16.82;79.80;101397.06;5010722;28;20038;-39
2021/08/19 13:58:43;;;;;;;17.63;8.60;;;;;;;16.79;80.24;101396.66;5010494;28;20033;-38
2021/08/19 14:01:08;;;;;;;11.85;8.07;;;;;;;16.79;79.14;101392.06;5009606;28;20036;-39
2021/08/19 14:03:33;;;;;;;20.85;8.10;;;;;;;16.76;79.55;101392.47;5009214;28;20021;-39
2021/08/19 14:05:59;;;;;;;15.57;9.35;;;;;;;16.84;80.55;101392.28;5010571;28;20038;-38
2021/08/19 14:08:24;;;;;;;16.58;8.05;;;;;;;16.88;78.10;101390.81;5010294;28;20091;-38
2021/08/19 14:10:49;;;;;;;11.68;7.38;;;;;;;16.92;77.95;101390.41;5010342;28;20458;-38
2021/08/19 14:13:15;;;;;;;12.10;7.85;;;;;;;17.05;78.73;101388.50;5009050;28;20087;-39
2021/08/19 14:15:40;;;;;;;15.38;8.27;;;;;;;17.13;78.52;101387.44;5010090;28;20030;-38
2021/08/19 14:18:06;;;;;;;16.55;7.75;;;;;;;17.21;77.45;101384.47;5008505;28;20038;-38
2021/08/19 14:20:31;;;;;;;17.00;7.72;;;;;;;17.22;76.85;101374.44;5010020;28;20480;-38
2021/08/19 14:22:57;;;;;;;22.13;7.28;;;;;;;17.25;75.29;101379.47;5009970;28;20037;-39
2021/08/19 14:25:22;;;;;;;12.50;6.97;;;;;;;17.25;74.90;101380.31;5006879;28;20029;-37
2021/08/19 14:27:47;;;;;;;11.77;6.25;;;;;;;17.34;75.67;101380.91;5009918;28;20076;-38
2021/08/19 14:30:13;;;;;;;10.40;7.22;;;;;;;17.45;76.49;101379.41;5008174;28;20049;-38
2021/08/19 14:32:39;;;;;;;13.52;6.57;;;;;;;17.47;74.88;101366.41;5008216;28;20033;-38
2021/08/19 14:35:06;;;;;;;11.10;6.22;;;;;;;17.62;74.62;101375.16;5009411;28;20104;-40
2021/08/19 14:37:31;;;;;;;13.77;5.93;;;;;;;17.67;72.25;101367.19;5009785;28;20025;-38
2021/08/19 14:39:57;;;;;;;13.63;6.28;;;;;;;17.69;74.45;101375.97;5009623;28;20050;-40
2021/08/19 14:42:22;;;;;;;11.35;6.72;;;;;;;17.51;73.83;101373.94;5009845;28;20049;-40
2021/08/19 14:44:47;;;;;;;9.57;6.18;;;;;;;17.52;75.25;101370.16;5009226;28;20029;-40
2021/08/19 14:47:13;;;;;;;10.75;6.30;;;;;;;17.38;74.46;101373.13;5009116;28;20039;-41
2021/08/19 14:49:38;;;;;;;11.77;7.30;;;;;;;17.41;75.44;101378.19;4995602;28;20057;-40
2021/08/19 14:52:03;;;;;;;13.32;7.60;;;;;;;17.46;75.44;101381.09;5002478;28;20022;-40
2021/08/19 14:54:29;;;;;;;9.18;6.70;;;;;;;17.47;75.19;101366.41;5009558;28;20270;-40
2021/08/19 14:56:54;;;;;;;9.95;5.80;;;;;;;17.44;72.63;101375.03;5008906;28;20030;-38
2021/08/19 14:59:20;;;;;;;15.45;6.70;;;;;;;17.40;74.90;101376.47;5009020;28;20030;-38
2021/08/19 15:01:45;;;;;;;9.13;6.10;;;;;;;17.37;73.12;101379.63;5008501;28;20022;-38
2021/08/19 15:04:11;;;;;;;12.18;6.30;;;;;;;17.43;73.51;101371.47;5010256;28;20042;-40
2021/08/19 15:06:37;;;;;;;12.65;6.78;;;;;;;17.49;74.66;101377.94;4990789;28;20123;-40
2021/08/19 15:09:04;;;;;;;10.55;6.50;;;;;;;17.49;72.46;101380.66;5008120;28;20030;-39
2021/08/19 15:11:30;;;;;;;15.93;6.78;;;;;;;17.46;72.18;101371.03;5011709;28;20152;-39
2021/08/19 15:13:56;;;;;;;12.70;6.32;;;;;;;17.42;72.52;101379.84;5011632;28;20044;-38
2021/08/19 15:16:21;;;;;;;12.65;6.00;;;;;;;17.33;71.97;101371.91;5012331;28;20537;-45
2021/08/19 15:18:46;;;;;;;10.45;5.80;;;;;;;17.28;71.38;101369.00;5011765;28;20109;-40
2021/08/19 15:21:12;;;;;;;10.68;5.25;;;;;;;17.28;69.57;101365.44;5011759;28;20018;-40
2021/08/19 15:23:38;;;;;;;7.85;4.47;;;;;;;17.20;68.55;101363.78;5011911;28;20060;-37
2021/08/19 15:26:04;;;;;;;6.47;5.15;;;;;;;17.31;70.78;101370.44;5011227;28;20421;-39
2021/08/19 15:28:31;;;;;;;8.35;5.10;;;;;;;17.36;70.06;101372.53;5011522;28;20707;-41
2021/08/19 15:30:57;;;;;;;12.95;4.63;;;;;;;17.53;70.58;101368.28;5009197;28;20041;-37
2021/08/19 15:33:22;;;;;;;10.88;5.28;;;;;;;17.59;69.32;101367.44;5011999;28;20408;-38
2021/08/19 15:35:48;;;;;;;7.03;4.50;;;;;;;17.68;68.59;101363.41;5011806;28;20549;-39
2021/08/19 15:38:14;;;;;;;9.88;5.68;;;;;;;17.75;68.93;101369.66;5011302;28;20034;-39
2021/08/19 15:40:40;;;;;;;10.85;5.10;;;;;;;17.63;67.72;101365.94;5010928;28;20120;-40
2021/08/19 15:43:05;;;;;;;11.15;5.15;;;;;;;17.54;68.20;101369.97;5011068;28;20396;-39
2021/08/19 15:45:31;;;;;;;9.82;5.20;;;;;;;17.47;69.00;101366.41;5011610;28;20056;-38
2021/08/19 15:47:56;;;;;;;7.30;4.75;;;;;;;17.44;69.38;101375.03;5006407;28;20510;-40
2021/08/19 15:50:22;;;;;;;8.98;5.38;;;;;;;17.49;69.06;101364.31;5041753;28;20029;-38
2021/08/19 15:52:47;;;;;;;10.70;5.20;;;;;;;17.53;68.98;101374.53;5012006;28;20070;-39
2021/08/19 15:55:13;;;;;;;8.68;5.43;;;;;;;17.55;68.63;101361.56;5011624;28;20030;-40
2021/08/19 15:57:38;;;;;;;10.20;5.57;;;;;;;17.55;68.17;101358.84;5011561;28;20156;-39
2021/08/19 16:00:05;;;;;;;9.85;6.10;;;;;;;17.44;68.67;101367.69;5011418;28;20034;-39
2021/08/19 16:02:30;;;;;;;11.00;5.53;;;;;;;17.42;69.09;101368.94;5011721;28;20033;-41
2021/08/19 16:04:56;;;;;;;9.65;5.85;;;;;;;17.36;69.75;101369.81;5026966;28;20026;-40
2021/08/19 16:07:21;;;;;;;12.38;5.22;;;;;;;17.18;68.11;101365.88;5011100;28;20124;-39
2021/08/19 16:09:46;;;;;;;10.18;5.07;;;;;;;17.21;68.94;101364.63;5011427;28;20033;-39
2021/08/19 16:12:12;;;;;;;10.43;5.75;;;;;;;17.18;69.46;101368.59;5011453;28;20030;-39
2021/08/19 16:14:37;;;;;;;10.65;5.63;;;;;;;17.15;69.87;101360.88;5011079;28;20064;-39
2021/08/19 16:17:05;;;;;;;13.30;6.07;;;;;;;17.15;70.06;101363.59;5010545;28;20065;-39
2021/08/19 16:19:31;;;;;;;;;;;;;;;17.12;69.26;101369.44;5011581;28;20437;-39
2021/08/19 16:21:56;;;;;;;11.70;5.45;;;;;;;17.06;68.24;101370.28;5010956;28;19914;-39
2021/08/19 16:24:21;;;;;;;8.40;5.65;;;;;;;17.04;68.52;101369.69;5011573;28;20057;-39
2021/08/19 16:26:47;;;;;;;7.93;5.20;;;;;;;17.00;67.61;101358.38;5014766;28;20022;-39
2021/08/19 16:29:12;;;;;;;12.07;5.47;;;;;;;17.01;67.33;101367.38;5015584;28;20030;-39
2021/08/19 16:31:37;;;;;;;11.13;4.82;;;;;;;17.02;68.20;101358.19;5013478;28;20117;-39
2021/08/19 16:34:03;;;;;;;8.07;4.68;;;;;;;17.03;67.59;101362.56;5015146;28;20116;-38
2021/08/19 16:36:30;;;;;;;10.43;5.32;;;;;;;17.07;67.31;101361.09;5014941;28;20128;-39
2021/08/19 16:38:56;;;;;;;7.75;4.47;;;;;;;17.05;67.75;101363.19;5013593;28;20053;-39
2021/08/19 16:41:22;;;;;;;8.63;4.70;;;;;;;17.01;66.93;101365.50;5013997;28;20041;-38
2021/08/19 16:43:47;;;;;;;8.52;4.60;;;;;;;17.00;67.12;101373.84;5014458;28;20068;-40
2021/08/19 16:46:12;;;;;;;11.18;5.05;;;;;;;17.00;67.87;101368.41;5013159;28;20505;-39
2021/08/19 16:48:38;;;;;;;7.30;4.80;;;;;;;16.98;68.16;101362.34;5014831;28;20112;-39
2021/08/19 16:51:03;;;;;;;10.40;5.22;;;;;;;16.98;68.81;101373.22;5013767;28;20033;-39
2021/08/19 16:53:28;;;;;;;9.23;5.45;;;;;;;16.97;69.33;101369.69;5014462;28;20033;-39
2021/08/19 16:55:53;;;;;;;11.35;5.40;;;;;;;16.91;69.38;101369.69;5014634;28;20034;-39
2021/08/19 16:58:19;;;;;;;11.43;5.50;;;;;;;16.88;70.00;101374.50;5014520;28;20018;-38
2021/08/19 17:00:44;;;;;;;9.38;6.05;;;;;;;16.88;70.60;101370.97;5014412;28;20030;-39
2021/08/19 17:03:09;;;;;;;11.57;5.45;;;;;;;16.86;70.52;101368.44;5014949;28;20042;-39
2021/08/19 17:05:35;;;;;;;11.75;5.43;;;;;;;16.86;70.56;101371.16;5014077;28;20072;-39
2021/08/19 17:08:00;;;;;;;13.30;5.28;;;;;;;16.81;70.94;101381.81;5014659;28;20033;-39
2021/08/19 17:10:26;;;;;;;10.98;5.40;;;;;;;16.76;70.70;101373.44;5012759;28;20400;-39
2021/08/19 17:12:51;;;;;;;11.68;6.10;;;;;;;16.71;71.10;101384.09;5014756;28;20389;-39
2021/08/19 17:15:17;;;;;;;9.68;5.25;;;;;;;16.66;71.09;101378.44;5014684;28;20096;-39
2021/08/19 17:17:43;;;;;;;9.32;5.35;;;;;;;16.67;71.01;101371.97;5014673;28;20334;-39
2021/08/19 17:20:09;;;;;;;9.43;5.55;;;;;;;16.67;71.20;101375.53;5013982;28;20030;-39
2021/08/19 17:22:34;;;;;;;10.50;5.63;;;;;;;16.66;70.95;101370.28;5013657;28;20029;-38
2021/08/19 17:25:00;;;;;;;16.52;5.97;;;;;;;16.65;71.31;101368.63;5014598;28;20076;-40
2021/08/19 17:27:26;;;;;;;13.18;5.78;;;;;;;16.65;71.27;101380.34;5008998;28;20389;-42
2021/08/19 17:29:51;;;;;;;14.82;6.07;;;;;;;16.64;70.86;101372.38;5012438;28;20104;-40
2021/08/19 17:32:17;;;;;;;17.73;6.00;;;;;;;16.66;70.92;101373.00;5013295;28;20562;-40
2021/08/19 17:34:42;;;;;;;11.15;6.05;;;;;;;16.67;71.38;101371.97;5014051;28;20105;-40
2021/08/19 17:37:07;;;;;;;14.63;6.15;;;;;;;16.69;70.30;101375.31;5014218;28;20026;-38
2021/08/19 17:39:33;;;;;;;11.80;6.43;;;;;;;16.69;70.56;101378.03;5014270;28;20049;-38
2021/08/19 17:41:58;;;;;;;14.13;6.13;;;;;;;16.69;71.22;101378.03;5014152;28;20030;-37
2021/08/19 17:44:24;;;;;;;11.20;6.18;;;;;;;16.64;71.23;101377.81;5013769;28;20084;-38
2021/08/19 17:46:49;;;;;;;15.20;6.00;;;;;;;16.62;71.39;101377.22;5013947;28;20033;-38
2021/08/19 17:49:14;;;;;;;12.48;6.22;;;;;;;16.59;71.23;101373.03;5013742;28;20504;-39
2021/08/19 17:51:40;;;;;;;9.27;6.25;;;;;;;16.65;72.01;101371.34;5013319;28;20029;-38
2021/08/19 17:54:05;;;;;;;13.05;6.78;;;;;;;16.68;71.47;101371.75;5014058;28;20080;-39
2021/08/19 17:56:30;;;;;;;11.98;6.35;;;;;;;16.74;72.50;101367.38;5013333;28;20041;-39
2021/08/19 17:58:56;;;;;;;15.68;6.95;;;;;;;16.80;72.85;101366.56;5013439;28;20026;-38
2021/08/19 18:01:24;;;;;;;21.08;7.03;;;;;;;16.79;73.39;101370.31;5013780;28;20121;-39
2021/08/19 18:03:51;;;;;;;19.23;7.18;;;;;;;16.74;73.76;101372.78;5013726;28;20386;-39
2021/08/19 18:06:17;;;;;;;12.95;7.00;;;;;;;16.71;73.93;101375.94;5013750;28;20104;-39
2021/08/19 18:08:43;;;;;;;16.23;7.70;;;;;;;16.72;74.63;101374.91;5010102;28;20033;-38
2021/08/19 18:11:13;;;;;;;13.95;7.18;;;;;;;16.74;74.33;101371.97;4990972;28;20042;-41
2021/08/19 18:13:42;;;;;;;12.82;6.90;;;;;;;16.70;74.78;101365.28;4991192;28;20041;-40
2021/08/19 18:16:08;;;;;;;12.52;6.88;;;;;;;16.72;75.18;101372.19;4991315;28;20030;-39
2021/08/19 18:18:35;;;;;;;14.90;7.00;;;;;;;16.68;74.61;101373.66;4990427;28;20390;-38
2021/08/19 18:21:02;;;;;;;14.05;8.07;;;;;;;16.66;74.98;101370.28;5018301;28;20055;-39
2021/08/19 18:23:28;;;;;;;14.25;7.13;;;;;;;16.58;75.05;101378.66;5019694;28;20079;-41
2021/08/19 18:25:53;;;;;;;21.42;8.07;;;;;;;16.50;75.13;101381.59;5029973;28;20033;-40
2021/08/19 18:28:19;;;;;;;14.07;7.40;;;;;;;16.51;75.89;101373.22;5009936;28;20030;-40
2021/08/19 18:30:45;;;;;;;20.52;7.57;;;;;;;16.54;75.54;101380.13;5010276;28;20263;-40
2021/08/19 18:33:10;;;;;;;15.10;7.78;;;;;;;16.56;75.68;101376.16;5013684;28;20026;-40
2021/08/19 18:35:35;;;;;;;11.23;7.13;;;;;;;16.60;75.08;101376.56;5013478;28;20033;-40
2021/08/19 18:38:01;;;;;;;11.90;7.22;;;;;;;16.63;75.22;101376.16;5013033;28;20059;-40
2021/08/19 18:40:26;;;;;;;16.50;7.50;;;;;;;16.61;75.36;101372.81;5012823;28;20053;-40
2021/08/19 18:42:51;;;;;;;12.57;7.32;;;;;;;16.56;74.77;101375.31;5012493;28;20088;-39
2021/08/19 18:45:17;;;;;;;11.27;7.30;;;;;;;16.50;75.17;101370.72;5009385;28;20087;-39
2021/08/19 18:47:42;;;;;;;17.98;8.07;;;;;;;16.49;74.42;101369.88;5007480;28;20131;-39
2021/08/19 18:50:09;;;;;;;10.93;7.35;;;;;;;16.50;74.87;101371.53;5004928;28;20151;-39
2021/08/19 18:52:35;;;;;;;12.67;7.00;;;;;;;16.40;73.90;101371.97;5007835;28;20053;-39
2021/08/19 18:55:01;;;;;;;17.73;7.63;;;;;;;16.39;74.02;101370.28;5010082;28;20064;-40
2021/08/19 18:57:27;;;;;;;13.48;7.07;;;;;;;16.33;73.22;101368.41;5008851;28;20026;-38
2021/08/19 18:59:52;;;;;;;17.85;6.82;;;;;;;16.27;73.21;101369.22;5008711;28;20385;-39
2021/08/19 19:02:17;;;;;;;12.45;6.47;;;;;;;16.30;73.83;101366.13;5010681;28;20049;-39
2021/08/19 19:04:43;;;;;;;12.13;6.47;;;;;;;16.26;73.24;101372.97;5010010;28;20030;-39
2021/08/19 19:07:09;;;;;;;13.60;7.13;;;;;;;16.23;72.80;101370.69;5009741;28;20437;-39
2021/08/19 19:09:35;;;;;;;8.93;5.88;;;;;;;16.24;73.57;101377.78;5009267;28;20069;-36
2021/08/19 19:12:00;;;;;;;10.77;6.38;;;;;;;16.24;72.89;101372.34;5009587;28;20640;-40
2021/08/19 19:14:26;;;;;;;9.90;6.05;;;;;;;16.24;73.43;101377.78;5008267;28;20030;-39
2021/08/19 19:16:51;;;;;;;10.80;6.30;;;;;;;16.24;73.01;101375.06;5008501;28;20041;-39
2021/08/19 19:19:17;;;;;;;13.05;6.32;;;;;;;16.20;72.38;101377.38;5009556;28;20022;-39
2021/08/19 19:21:43;;;;;;;13.80;6.22;;;;;;;16.16;72.92;101370.66;5008556;28;20037;-39
2021/08/19 19:24:08;;;;;;;11.50;6.95;;;;;;;16.20;73.34;101376.53;5007488;28;20030;-39
2021/08/19 19:26:34;;;;;;;11.35;6.53;;;;;;;16.23;72.74;101381.56;5008301;28;20056;-39
2021/08/19 19:29:00;;;;;;;11.57;6.55;;;;;;;16.22;72.83;101380.72;5008716;28;20033;-39
2021/08/19 19:31:25;;;;;;;9.95;6.18;;;;;;;16.24;73.51;101378.63;5009085;28;20121;-38
2021/08/19 19:33:51;;;;;;;11.10;6.78;;;;;;;16.21;71.62;101384.47;5008114;28;20567;-39
2021/08/19 19:36:16;;;;;;;8.55;6.32;;;;;;;16.19;71.57;101385.72;5008794;28;20044;-39
2021/08/19 19:38:41;;;;;;;9.30;6.22;;;;;;;16.18;72.12;101373.19;5009913;28;20118;-40
2021/08/19 19:41:07;;;;;;;12.32;6.43;;;;;;;16.16;71.42;101381.53;5011409;28;20034;-40
2021/08/19 19:43:32;;;;;;;11.70;6.75;;;;;;;16.18;71.36;101386.75;5012013;28;20122;-39
2021/08/19 19:45:58;;;;;;;9.20;6.50;;;;;;;16.18;71.76;101394.91;5012316;28;20026;-39
2021/08/19 19:48:23;;;;;;;11.00;7.32;;;;;;;16.18;72.11;101401.19;5012306;28;20037;-39
2021/08/19 19:50:48;;;;;;;14.88;6.35;;;;;;;16.19;71.55;101404.72;5010484;28;20492;-39
2021/08/19 19:53:14;;;;;;;8.55;6.13;;;;;;;16.20;71.17;101395.56;5011984;28;20096;-39
2021/08/19 19:55:39;;;;;;;13.35;6.38;;;;;;;16.17;70.95;101404.13;5011865;28;20018;-39
2021/08/19 19:58:04;;;;;;;7.97;6.47;;;;;;;16.16;71.21;101403.25;5011271;28;20080;-38
2021/08/19 20:00:30;;;;;;;13.10;6.10;;;;;;;16.15;70.88;101400.75;5012516;28;20022;-39
2021/08/19 20:02:56;;;;;;;13.10;6.30;;;;;;;16.12;70.96;101395.75;5015308;28;20389;-40
2021/08/19 20:05:21;;;;;;;13.43;6.60;;;;;;;16.10;70.85;101389.66;5015616;28;20049;-40
2021/08/19 20:07:46;;;;;;;12.13;6.70;;;;;;;16.06;71.02;101391.97;5015751;28;20044;-39
2021/08/19 20:10:12;;;;;;;8.77;5.32;;;;;;;16.02;71.08;101391.53;5015324;28;20520;-37
2021/08/19 20:12:37;;;;;;;11.32;5.90;;;;;;;15.97;71.27;101401.31;5015585;28;20084;-38
2021/08/19 20:15:03;;;;;;;12.10;6.03;;;;;;;15.92;71.54;101398.38;5014267;28;20026;-40
2021/08/19 20:17:29;;;;;;;10.32;6.35;;;;;;;15.85;71.96;101401.09;5015373;28;20034;-39
2021/08/19 20:19:54;;;;;;;13.15;6.00;;;;;;;15.79;72.54;101402.72;5015288;28;20108;-39
2021/08/19 20:22:19;;;;;;;10.18;5.97;;;;;;;15.74;72.76;101404.38;5014942;28;20397;-39
2021/08/19 20:24:45;;;;;;;15.55;6.38;;;;;;;15.68;73.12;101405.16;5015044;28;20113;-38
2021/08/19 20:27:10;;;;;;;8.93;6.20;;;;;;;15.61;73.81;101409.69;5015386;28;20072;-39
2021/08/19 20:29:36;;;;;;;11.75;6.35;;;;;;;15.54;73.56;101420.53;5015037;28;20025;-39
2021/08/19 20:32:02;;;;;;;11.05;6.55;;;;;;;15.50;73.90;101414.66;5015568;28;20551;-39
2021/08/19 20:34:28;;;;;;;11.10;6.15;;;;;;;15.46;74.36;101416.09;5015353;28;20026;-39
2021/08/19 20:36:54;;;;;;;10.43;7.18;;;;;;;15.42;74.38;101412.09;5015035;28;20022;-39
2021/08/19 20:39:19;;;;;;;10.38;6.78;;;;;;;15.39;75.33;101414.41;5014661;28;20331;-39
2021/08/19 20:41:45;;;;;;;12.07;6.43;;;;;;;15.33;75.34;101418.75;5015365;28;20049;-39
2021/08/19 20:44:10;;;;;;;13.80;6.50;;;;;;;15.27;76.03;101412.25;5014001;28;20030;-39
2021/08/19 20:46:35;;;;;;;12.65;6.97;;;;;;;15.23;76.87;101407.41;5015399;28;20030;-39
2021/08/19 20:49:01;;;;;;;10.13;6.75;;;;;;;15.13;76.44;101403.16;5014555;28;20034;-39
2021/08/19 20:51:26;;;;;;;11.55;6.50;;;;;;;15.08;76.42;101404.81;5014966;28;20040;-39
2021/08/19 20:53:52;;;;;;;14.38;6.72;;;;;;;15.02;77.30;101408.31;5015124;28;20064;-39
2021/08/19 20:56:17;;;;;;;9.25;6.68;;;;;;;14.99;77.53;101428.53;5014790;28;20036;-39
2021/08/19 20:58:42;;;;;;;16.48;6.88;;;;;;;14.95;77.54;101423.69;5014554;28;20032;-39
2021/08/19 21:01:08;;;;;;;9.73;6.63;;;;;;;14.91;78.04;101423.25;5014531;28;20084;-39
2021/08/19 21:03:35;;;;;;;12.45;7.18;;;;;;;14.86;78.23;101420.28;5014701;28;20030;-37
2021/08/19 21:06:00;;;;;;;10.98;7.28;;;;;;;14.81;77.93;101411.91;5014778;28;20025;-38
2021/08/19 21:08:25;;;;;;;14.00;7.25;;;;;;;14.78;78.46;101420.44;5014519;28;20040;-38
2021/08/19 21:10:51;;;;;;;12.75;7.32;;;;;;;14.75;78.60;101421.66;5014018;28;20033;-39
2021/08/19 21:13:16;;;;;;;9.45;7.05;;;;;;;14.71;78.94;101421.19;5014733;28;20105;-41
2021/08/19 21:15:41;;;;;;;13.38;7.03;;;;;;;14.68;79.39;101424.28;5014675;28;20113;-39
2021/08/19 21:18:07;;;;;;;11.23;6.78;;;;;;;14.64;79.21;101430.28;5014627;28;20029;-40
2021/08/19 21:20:32;;;;;;;13.27;7.45;;;;;;;14.60;79.42;101423.59;5014237;28;20084;-39
2021/08/19 21:22:57;;;;;;;11.45;7.30;;;;;;;14.55;79.79;101424.16;5014509;28;20105;-40
2021/08/19 21:25:23;;;;;;;12.55;7.03;;;;;;;14.52;79.81;101421.00;5013153;28;20026;-38
2021/08/19 21:27:48;;;;;;;12.07;7.43;;;;;;;14.47;80.12;101414.28;5013943;28;20026;-40
2021/08/19 21:30:13;;;;;;;14.57;7.32;;;;;;;14.44;80.36;101419.25;5013787;28;20116;-39
2021/08/19 21:32:39;;;;;;;11.10;7.00;;;;;;;14.40;80.22;101423.34;5014172;28;20120;-38
2021/08/19 21:35:05;;;;;;;13.48;7.60;;;;;;;14.35;80.78;101421.25;5014075;28;20049;-38
2021/08/19 21:37:31;;;;;;;20.38;7.82;;;;;;;14.33;81.03;101427.91;5017415;28;20037;-39
2021/08/19 21:39:57;;;;;;;11.90;7.88;;;;;;;14.28;81.26;101432.00;5018399;28;20475;-40
2021/08/19 21:42:22;;;;;;;19.40;9.18;;;;;;;14.26;81.30;101423.22;5014411;28;20068;-39
2021/08/19 21:44:47;;;;;;;15.20;8.73;;;;;;;14.25;81.29;101429.69;5013758;28;20111;-39
2021/08/19 21:47:13;;;;;;;12.77;8.00;;;;;;;14.24;81.32;101427.16;5014458;28;20054;-39
2021/08/19 21:49:39;;;;;;;14.48;9.40;;;;;;;14.25;81.47;101416.16;5013885;28;20044;-38
2021/08/19 21:52:05;;;;;;;15.02;9.57;;;;;;;14.21;81.80;101422.97;5014180;28;20037;-39
2021/08/19 21:54:30;;;;;;;12.95;9.38;;;;;;;14.19;82.08;101416.94;5014303;28;20034;-40
2021/08/19 21:56:55;;;;;;;18.40;9.52;;;;;;;14.18;82.07;101420.63;5013336;28;20025;-39
2021/08/19 21:59:21;;;;;;;13.57;8.52;;;;;;;14.17;82.03;101434.38;5013650;28;20060;-39
2021/08/19 22:01:46;;;;;;;19.52;10.40;;;;;;;14.16;82.28;101428.09;5013913;28;20026;-39
2021/08/19 22:04:11;;;;;;;17.90;10.30;;;;;;;14.14;82.41;101429.34;5029121;28;20041;-37
2021/08/19 22:06:37;;;;;;;18.38;10.07;;;;;;;14.14;81.93;101426.63;5014228;28;20335;-38
2021/08/19 22:09:02;;;;;;;16.85;10.98;;;;;;;14.11;82.54;101427.84;5013688;28;20100;-38
2021/08/19 22:11:27;;;;;;;15.65;9.95;;;;;;;14.07;82.41;101429.28;5014294;28;20026;-39
2021/08/19 22:13:53;;;;;;;19.55;10.77;;;;;;;14.06;82.79;101422.19;5014027;28;20083;-39
2021/08/19 22:16:19;;;;;;;16.55;10.32;;;;;;;14.03;82.40;101427.97;5013790;28;20041;-39
2021/08/19 22:18:44;;;;;;;17.05;9.38;;;;;;;14.00;82.45;101431.88;5013055;28;20022;-39
2021/08/19 22:21:10;;;;;;;17.13;9.55;;;;;;;13.96;82.34;101421.66;5013475;28;20397;-39
2021/08/19 22:23:36;;;;;;;20.13;11.07;;;;;;;13.94;82.82;101431.81;5012718;28;20030;-39
2021/08/19 22:26:02;;;;;;;20.02;10.63;;;;;;;13.93;82.60;101424.72;5013402;28;20085;-39
2021/08/19 22:28:27;;;;;;;18.02;10.68;;;;;;;13.92;82.80;101433.88;5013046;28;20026;-38
2021/08/19 22:30:53;;;;;;;14.77;10.75;;;;;;;13.89;82.64;101424.25;5012895;28;20372;-38
2021/08/19 22:33:18;;;;;;;14.27;10.70;;;;;;;13.89;82.82;101426.13;5012732;28;20433;-39
2021/08/19 22:35:43;;;;;;;17.10;10.50;;;;;;;13.86;83.07;101434.63;5013159;28;20441;-38
2021/08/19 22:38:09;;;;;;;15.57;10.70;;;;;;;13.84;83.45;101424.00;5013178;28;20026;-39
2021/08/19 22:40:34;;;;;;;16.83;10.27;;;;;;;13.84;83.17;101426.69;5012201;28;20054;-39
2021/08/19 22:43:00;;;;;;;16.83;11.60;;;;;;;13.84;83.09;101421.28;5011377;28;20030;-39
2021/08/19 22:45:25;;;;;;;16.55;10.93;;;;;;;13.86;83.36;101426.53;5012945;28;20034;-38
2021/08/19 22:47:51;;;;;;;17.83;10.90;;;;;;;13.87;83.44;101412.78;5012584;28;20108;-39
2021/08/19 22:50:16;;;;;;;17.95;11.23;;;;;;;13.89;83.29;101415.31;5012721;28;20045;-39